sensor_id;sensor_type;location;lat;lon;timestamp;P1;durP1;ratioP1;P2;durP2;ratioP2
56122;SDS011;42426;46.104;19.656;2023-07-28T00:01:29;5.18;;;4.63;;
56122;SDS011;42426;46.104;19.656;2023-07-28T00:03:55;7.05;;;3.53;;
56122;SDS011;42426;46.104;19.656;2023-07-28T00:06:22;5.60;;;3.67;;
56122;SDS011;42426;46.104;19.656;2023-07-28T00:08:48;6.55;;;3.80;;
56122;SDS011;42426;46.104;19.656;2023-07-28T00:11:15;6.43;;;3.95;;
56122;SDS011;42426;46.104;19.656;2023-07-28T00:13:41;5.93;;;3.70;;
56122;SDS011;42426;46.104;19.656;2023-07-28T00:16:07;5.28;;;3.80;;
56122;SDS011;42426;46.104;19.656;2023-07-28T00:18:34;5.57;;;3.67;;
56122;SDS011;42426;46.104;19.656;2023-07-28T00:21:00;5.90;;;4.00;;
56122;SDS011;42426;46.104;19.656;2023-07-28T00:23:26;4.97;;;3.70;;
56122;SDS011;42426;46.104;19.656;2023-07-28T00:25:51;6.28;;;4.00;;
56122;SDS011;42426;46.104;19.656;2023-07-28T00:28:17;6.35;;;3.67;;
56122;SDS011;42426;46.104;19.656;2023-07-28T00:30:43;5.00;;;3.90;;
56122;SDS011;42426;46.104;19.656;2023-07-28T00:33:08;5.88;;;3.95;;
56122;SDS011;42426;46.104;19.656;2023-07-28T00:35:34;5.13;;;3.58;;
56122;SDS011;42426;46.104;19.656;2023-07-28T00:38:00;6.72;;;3.95;;
56122;SDS011;42426;46.104;19.656;2023-07-28T00:40:26;7.30;;;3.80;;
56122;SDS011;42426;46.104;19.656;2023-07-28T00:42:51;6.15;;;3.55;;
56122;SDS011;42426;46.104;19.656;2023-07-28T00:45:17;4.40;;;4.00;;
56122;SDS011;42426;46.104;19.656;2023-07-28T00:47:43;7.43;;;3.83;;
56122;SDS011;42426;46.104;19.656;2023-07-28T00:50:09;5.10;;;3.60;;
56122;SDS011;42426;46.104;19.656;2023-07-28T00:52:35;6.60;;;3.95;;
56122;SDS011;42426;46.104;19.656;2023-07-28T00:55:02;6.03;;;3.72;;
56122;SDS011;42426;46.104;19.656;2023-07-28T00:57:28;6.47;;;3.53;;
56122;SDS011;42426;46.104;19.656;2023-07-28T00:59:53;6.05;;;3.75;;
56122;SDS011;42426;46.104;19.656;2023-07-28T01:02:19;6.25;;;4.25;;
56122;SDS011;42426;46.104;19.656;2023-07-28T01:04:46;11.73;;;3.80;;
56122;SDS011;42426;46.104;19.656;2023-07-28T01:07:14;6.03;;;3.63;;
56122;SDS011;42426;46.104;19.656;2023-07-28T01:09:52;7.03;;;4.18;;
56122;SDS011;42426;46.104;19.656;2023-07-28T01:12:23;7.07;;;4.43;;
56122;SDS011;42426;46.104;19.656;2023-07-28T01:14:49;7.35;;;4.35;;
56122;SDS011;42426;46.104;19.656;2023-07-28T01:17:15;6.07;;;3.80;;
56122;SDS011;42426;46.104;19.656;2023-07-28T01:19:41;6.38;;;4.53;;
56122;SDS011;42426;46.104;19.656;2023-07-28T01:27:20;6.80;;;4.25;;
56122;SDS011;42426;46.104;19.656;2023-07-28T01:29:46;7.60;;;4.43;;
56122;SDS011;42426;46.104;19.656;2023-07-28T01:32:13;7.63;;;4.53;;
56122;SDS011;42426;46.104;19.656;2023-07-28T01:34:39;6.82;;;4.32;;
56122;SDS011;42426;46.104;19.656;2023-07-28T01:37:05;5.25;;;3.83;;
56122;SDS011;42426;46.104;19.656;2023-07-28T01:39:30;5.97;;;4.40;;
56122;SDS011;42426;46.104;19.656;2023-07-28T01:41:56;7.25;;;4.93;;
56122;SDS011;42426;46.104;19.656;2023-07-28T01:44:22;5.93;;;4.90;;
56122;SDS011;42426;46.104;19.656;2023-07-28T01:46:47;8.23;;;5.05;;
56122;SDS011;42426;46.104;19.656;2023-07-28T01:49:13;8.02;;;4.78;;
56122;SDS011;42426;46.104;19.656;2023-07-28T01:51:39;11.50;;;5.28;;
56122;SDS011;42426;46.104;19.656;2023-07-28T01:54:04;8.55;;;5.43;;
56122;SDS011;42426;46.104;19.656;2023-07-28T01:56:30;6.60;;;4.68;;
56122;SDS011;42426;46.104;19.656;2023-07-28T01:58:56;6.45;;;4.80;;
56122;SDS011;42426;46.104;19.656;2023-07-28T02:01:22;7.68;;;4.97;;
56122;SDS011;42426;46.104;19.656;2023-07-28T02:03:47;10.38;;;4.82;;
56122;SDS011;42426;46.104;19.656;2023-07-28T02:06:13;8.38;;;5.60;;
56122;SDS011;42426;46.104;19.656;2023-07-28T02:08:39;7.05;;;5.20;;
56122;SDS011;42426;46.104;19.656;2023-07-28T02:11:04;16.15;;;6.40;;
56122;SDS011;42426;46.104;19.656;2023-07-28T02:13:30;6.93;;;4.97;;
56122;SDS011;42426;46.104;19.656;2023-07-28T02:15:56;9.15;;;5.10;;
56122;SDS011;42426;46.104;19.656;2023-07-28T02:18:21;7.63;;;4.82;;
56122;SDS011;42426;46.104;19.656;2023-07-28T02:20:48;7.55;;;4.40;;
56122;SDS011;42426;46.104;19.656;2023-07-28T02:23:14;7.30;;;5.28;;
56122;SDS011;42426;46.104;19.656;2023-07-28T02:25:40;9.38;;;5.45;;
56122;SDS011;42426;46.104;19.656;2023-07-28T02:28:06;6.15;;;4.55;;
56122;SDS011;42426;46.104;19.656;2023-07-28T02:30:33;6.25;;;4.53;;
56122;SDS011;42426;46.104;19.656;2023-07-28T02:32:59;6.65;;;4.65;;
56122;SDS011;42426;46.104;19.656;2023-07-28T02:35:25;7.38;;;4.97;;
56122;SDS011;42426;46.104;19.656;2023-07-28T02:37:50;7.13;;;5.30;;
56122;SDS011;42426;46.104;19.656;2023-07-28T02:40:16;6.60;;;4.63;;
56122;SDS011;42426;46.104;19.656;2023-07-28T02:42:42;8.73;;;4.97;;
56122;SDS011;42426;46.104;19.656;2023-07-28T02:45:07;9.00;;;5.32;;
56122;SDS011;42426;46.104;19.656;2023-07-28T02:47:35;7.22;;;5.32;;
56122;SDS011;42426;46.104;19.656;2023-07-28T02:50:00;6.47;;;4.88;;
56122;SDS011;42426;46.104;19.656;2023-07-28T02:52:26;6.80;;;4.68;;
56122;SDS011;42426;46.104;19.656;2023-07-28T02:54:52;12.45;;;5.63;;
56122;SDS011;42426;46.104;19.656;2023-07-28T02:57:18;10.38;;;5.28;;
56122;SDS011;42426;46.104;19.656;2023-07-28T02:59:43;8.27;;;5.13;;
56122;SDS011;42426;46.104;19.656;2023-07-28T03:02:09;9.77;;;5.35;;
56122;SDS011;42426;46.104;19.656;2023-07-28T03:04:35;8.02;;;5.38;;
56122;SDS011;42426;46.104;19.656;2023-07-28T03:07:00;7.57;;;5.28;;
56122;SDS011;42426;46.104;19.656;2023-07-28T03:09:26;8.95;;;6.03;;
56122;SDS011;42426;46.104;19.656;2023-07-28T03:11:52;12.75;;;5.80;;
56122;SDS011;42426;46.104;19.656;2023-07-28T03:14:17;7.32;;;5.10;;
56122;SDS011;42426;46.104;19.656;2023-07-28T03:16:43;12.68;;;6.30;;
56122;SDS011;42426;46.104;19.656;2023-07-28T03:19:09;12.52;;;5.90;;
56122;SDS011;42426;46.104;19.656;2023-07-28T03:21:35;7.25;;;4.60;;
56122;SDS011;42426;46.104;19.656;2023-07-28T03:24:00;9.35;;;4.93;;
56122;SDS011;42426;46.104;19.656;2023-07-28T03:26:26;9.57;;;5.53;;
56122;SDS011;42426;46.104;19.656;2023-07-28T03:28:52;8.65;;;5.50;;
56122;SDS011;42426;46.104;19.656;2023-07-28T03:31:18;8.98;;;5.20;;
56122;SDS011;42426;46.104;19.656;2023-07-28T03:33:44;11.48;;;5.72;;
56122;SDS011;42426;46.104;19.656;2023-07-28T03:36:09;9.25;;;5.63;;
56122;SDS011;42426;46.104;19.656;2023-07-28T03:38:35;8.50;;;5.32;;
56122;SDS011;42426;46.104;19.656;2023-07-28T03:41:01;9.18;;;5.72;;
56122;SDS011;42426;46.104;19.656;2023-07-28T03:43:26;8.73;;;5.13;;
56122;SDS011;42426;46.104;19.656;2023-07-28T03:45:52;9.75;;;5.70;;
56122;SDS011;42426;46.104;19.656;2023-07-28T03:48:18;8.18;;;5.57;;
56122;SDS011;42426;46.104;19.656;2023-07-28T03:50:43;7.93;;;6.00;;
56122;SDS011;42426;46.104;19.656;2023-07-28T03:53:09;9.57;;;5.68;;
56122;SDS011;42426;46.104;19.656;2023-07-28T03:55:35;9.32;;;5.22;;
56122;SDS011;42426;46.104;19.656;2023-07-28T03:58:00;8.38;;;4.88;;
56122;SDS011;42426;46.104;19.656;2023-07-28T04:00:26;8.77;;;5.60;;
56122;SDS011;42426;46.104;19.656;2023-07-28T04:02:52;6.72;;;5.03;;
56122;SDS011;42426;46.104;19.656;2023-07-28T04:05:17;5.95;;;5.10;;
56122;SDS011;42426;46.104;19.656;2023-07-28T04:07:43;8.50;;;5.88;;
56122;SDS011;42426;46.104;19.656;2023-07-28T04:10:09;6.60;;;4.97;;
56122;SDS011;42426;46.104;19.656;2023-07-28T04:12:35;9.25;;;5.55;;
56122;SDS011;42426;46.104;19.656;2023-07-28T04:15:00;10.23;;;6.07;;
56122;SDS011;42426;46.104;19.656;2023-07-28T04:17:27;9.15;;;4.95;;
56122;SDS011;42426;46.104;19.656;2023-07-28T04:19:52;10.05;;;5.85;;
56122;SDS011;42426;46.104;19.656;2023-07-28T04:22:18;7.20;;;5.22;;
56122;SDS011;42426;46.104;19.656;2023-07-28T04:24:46;9.93;;;5.80;;
56122;SDS011;42426;46.104;19.656;2023-07-28T04:27:13;7.60;;;5.75;;
56122;SDS011;42426;46.104;19.656;2023-07-28T04:29:39;9.73;;;6.20;;
56122;SDS011;42426;46.104;19.656;2023-07-28T04:32:05;9.00;;;5.30;;
56122;SDS011;42426;46.104;19.656;2023-07-28T04:34:34;7.15;;;5.00;;
56122;SDS011;42426;46.104;19.656;2023-07-28T04:37:00;7.15;;;5.13;;
56122;SDS011;42426;46.104;19.656;2023-07-28T04:39:26;8.98;;;5.97;;
56122;SDS011;42426;46.104;19.656;2023-07-28T04:41:51;9.32;;;6.10;;
56122;SDS011;42426;46.104;19.656;2023-07-28T04:44:17;9.50;;;5.78;;
56122;SDS011;42426;46.104;19.656;2023-07-28T04:46:44;7.95;;;5.03;;
56122;SDS011;42426;46.104;19.656;2023-07-28T04:49:12;9.80;;;5.50;;
56122;SDS011;42426;46.104;19.656;2023-07-28T04:51:38;7.47;;;4.97;;
56122;SDS011;42426;46.104;19.656;2023-07-28T04:54:04;8.90;;;6.25;;
56122;SDS011;42426;46.104;19.656;2023-07-28T04:56:30;9.20;;;6.35;;
56122;SDS011;42426;46.104;19.656;2023-07-28T04:58:55;9.00;;;6.07;;
56122;SDS011;42426;46.104;19.656;2023-07-28T05:01:23;6.90;;;5.72;;
56122;SDS011;42426;46.104;19.656;2023-07-28T05:03:49;9.35;;;6.13;;
56122;SDS011;42426;46.104;19.656;2023-07-28T05:06:15;10.65;;;5.80;;
56122;SDS011;42426;46.104;19.656;2023-07-28T05:08:41;10.95;;;6.22;;
56122;SDS011;42426;46.104;19.656;2023-07-28T05:11:06;10.25;;;6.07;;
56122;SDS011;42426;46.104;19.656;2023-07-28T05:13:32;6.75;;;5.57;;
56122;SDS011;42426;46.104;19.656;2023-07-28T05:15:58;9.95;;;5.60;;
56122;SDS011;42426;46.104;19.656;2023-07-28T05:18:24;9.43;;;5.32;;
56122;SDS011;42426;46.104;19.656;2023-07-28T05:20:50;7.43;;;5.28;;
56122;SDS011;42426;46.104;19.656;2023-07-28T05:23:16;6.68;;;5.53;;
56122;SDS011;42426;46.104;19.656;2023-07-28T05:25:42;9.55;;;5.03;;
56122;SDS011;42426;46.104;19.656;2023-07-28T05:28:07;7.10;;;4.88;;
56122;SDS011;42426;46.104;19.656;2023-07-28T05:30:33;10.63;;;5.18;;
56122;SDS011;42426;46.104;19.656;2023-07-28T05:32:59;7.22;;;5.57;;
56122;SDS011;42426;46.104;19.656;2023-07-28T05:35:24;5.75;;;4.85;;
56122;SDS011;42426;46.104;19.656;2023-07-28T05:37:50;5.93;;;4.85;;
56122;SDS011;42426;46.104;19.656;2023-07-28T05:40:16;8.55;;;4.70;;
56122;SDS011;42426;46.104;19.656;2023-07-28T05:42:42;5.40;;;4.88;;
56122;SDS011;42426;46.104;19.656;2023-07-28T05:45:08;5.68;;;4.45;;
56122;SDS011;42426;46.104;19.656;2023-07-28T05:47:34;5.97;;;5.07;;
56122;SDS011;42426;46.104;19.656;2023-07-28T05:49:59;5.40;;;4.82;;
56122;SDS011;42426;46.104;19.656;2023-07-28T05:52:25;5.40;;;4.22;;
56122;SDS011;42426;46.104;19.656;2023-07-28T05:54:51;4.47;;;3.72;;
56122;SDS011;42426;46.104;19.656;2023-07-28T05:57:17;5.53;;;4.40;;
56122;SDS011;42426;46.104;19.656;2023-07-28T05:59:43;5.72;;;3.65;;
56122;SDS011;42426;46.104;19.656;2023-07-28T06:02:08;8.50;;;4.40;;
56122;SDS011;42426;46.104;19.656;2023-07-28T06:04:34;5.90;;;4.10;;
56122;SDS011;42426;46.104;19.656;2023-07-28T06:07:00;8.45;;;4.82;;
56122;SDS011;42426;46.104;19.656;2023-07-28T06:09:27;4.90;;;3.97;;
56122;SDS011;42426;46.104;19.656;2023-07-28T06:11:53;11.45;;;4.53;;
56122;SDS011;42426;46.104;19.656;2023-07-28T06:14:18;5.07;;;4.10;;
56122;SDS011;42426;46.104;19.656;2023-07-28T06:16:44;7.35;;;4.43;;
56122;SDS011;42426;46.104;19.656;2023-07-28T06:19:10;4.65;;;3.85;;
56122;SDS011;42426;46.104;19.656;2023-07-28T06:21:36;4.13;;;3.53;;
56122;SDS011;42426;46.104;19.656;2023-07-28T06:24:02;4.95;;;3.38;;
56122;SDS011;42426;46.104;19.656;2023-07-28T06:26:28;3.65;;;3.17;;
56122;SDS011;42426;46.104;19.656;2023-07-28T06:28:54;3.97;;;3.45;;
56122;SDS011;42426;46.104;19.656;2023-07-28T06:31:19;4.85;;;3.40;;
56122;SDS011;42426;46.104;19.656;2023-07-28T06:33:46;4.25;;;3.40;;
56122;SDS011;42426;46.104;19.656;2023-07-28T06:36:12;3.70;;;3.22;;
56122;SDS011;42426;46.104;19.656;2023-07-28T06:38:38;5.07;;;3.70;;
56122;SDS011;42426;46.104;19.656;2023-07-28T06:41:04;4.97;;;3.05;;
56122;SDS011;42426;46.104;19.656;2023-07-28T06:43:30;4.32;;;3.15;;
56122;SDS011;42426;46.104;19.656;2023-07-28T06:45:55;7.72;;;3.90;;
56122;SDS011;42426;46.104;19.656;2023-07-28T06:48:21;5.53;;;3.03;;
56122;SDS011;42426;46.104;19.656;2023-07-28T06:50:47;5.45;;;2.95;;
56122;SDS011;42426;46.104;19.656;2023-07-28T06:53:13;4.47;;;3.30;;
56122;SDS011;42426;46.104;19.656;2023-07-28T06:55:38;3.50;;;3.20;;
56122;SDS011;42426;46.104;19.656;2023-07-28T06:58:04;4.55;;;2.90;;
56122;SDS011;42426;46.104;19.656;2023-07-28T07:00:31;4.35;;;3.53;;
56122;SDS011;42426;46.104;19.656;2023-07-28T07:02:57;5.35;;;3.20;;
56122;SDS011;42426;46.104;19.656;2023-07-28T07:05:23;4.43;;;3.08;;
56122;SDS011;42426;46.104;19.656;2023-07-28T07:07:49;5.57;;;3.00;;
56122;SDS011;42426;46.104;19.656;2023-07-28T07:10:14;3.92;;;3.25;;
56122;SDS011;42426;46.104;19.656;2023-07-28T07:12:40;4.05;;;3.40;;
56122;SDS011;42426;46.104;19.656;2023-07-28T07:15:06;3.97;;;3.10;;
56122;SDS011;42426;46.104;19.656;2023-07-28T07:17:32;3.80;;;3.20;;
56122;SDS011;42426;46.104;19.656;2023-07-28T07:19:58;4.28;;;3.30;;
56122;SDS011;42426;46.104;19.656;2023-07-28T07:22:24;5.07;;;3.30;;
56122;SDS011;42426;46.104;19.656;2023-07-28T07:24:50;3.45;;;3.10;;
56122;SDS011;42426;46.104;19.656;2023-07-28T07:27:15;3.92;;;3.50;;
56122;SDS011;42426;46.104;19.656;2023-07-28T07:29:41;4.88;;;3.15;;
56122;SDS011;42426;46.104;19.656;2023-07-28T07:32:07;6.53;;;3.78;;
56122;SDS011;42426;46.104;19.656;2023-07-28T07:34:34;3.50;;;3.17;;
56122;SDS011;42426;46.104;19.656;2023-07-28T07:37:02;5.63;;;3.13;;
56122;SDS011;42426;46.104;19.656;2023-07-28T07:39:28;4.32;;;3.33;;
56122;SDS011;42426;46.104;19.656;2023-07-28T07:41:54;3.53;;;3.20;;
56122;SDS011;42426;46.104;19.656;2023-07-28T07:44:19;5.30;;;3.00;;
56122;SDS011;42426;46.104;19.656;2023-07-28T07:46:45;3.53;;;3.20;;
56122;SDS011;42426;46.104;19.656;2023-07-28T07:49:11;3.28;;;2.97;;
56122;SDS011;42426;46.104;19.656;2023-07-28T07:51:37;6.20;;;3.47;;
56122;SDS011;42426;46.104;19.656;2023-07-28T07:54:02;4.75;;;3.47;;
56122;SDS011;42426;46.104;19.656;2023-07-28T07:56:28;3.72;;;3.35;;
56122;SDS011;42426;46.104;19.656;2023-07-28T07:58:54;3.22;;;2.90;;
56122;SDS011;42426;46.104;19.656;2023-07-28T08:01:20;3.58;;;3.22;;
56122;SDS011;42426;46.104;19.656;2023-07-28T08:03:46;4.57;;;3.35;;
56122;SDS011;42426;46.104;19.656;2023-07-28T08:06:12;3.92;;;3.17;;
56122;SDS011;42426;46.104;19.656;2023-07-28T08:08:38;5.43;;;3.22;;
56122;SDS011;42426;46.104;19.656;2023-07-28T08:11:04;4.75;;;3.50;;
56122;SDS011;42426;46.104;19.656;2023-07-28T08:13:30;4.88;;;2.95;;
56122;SDS011;42426;46.104;19.656;2023-07-28T08:15:56;4.28;;;3.42;;
56122;SDS011;42426;46.104;19.656;2023-07-28T08:18:21;4.75;;;3.20;;
56122;SDS011;42426;46.104;19.656;2023-07-28T08:20:48;5.25;;;3.40;;
56122;SDS011;42426;46.104;19.656;2023-07-28T08:23:14;6.88;;;3.40;;
56122;SDS011;42426;46.104;19.656;2023-07-28T08:25:39;7.40;;;3.72;;
56122;SDS011;42426;46.104;19.656;2023-07-28T08:28:05;3.92;;;3.53;;
56122;SDS011;42426;46.104;19.656;2023-07-28T08:30:31;3.95;;;3.20;;
56122;SDS011;42426;46.104;19.656;2023-07-28T08:32:57;3.45;;;3.05;;
56122;SDS011;42426;46.104;19.656;2023-07-28T08:35:23;6.00;;;3.30;;
56122;SDS011;42426;46.104;19.656;2023-07-28T08:37:49;5.95;;;3.22;;
56122;SDS011;42426;46.104;19.656;2023-07-28T08:40:14;6.55;;;3.38;;
56122;SDS011;42426;46.104;19.656;2023-07-28T08:42:41;3.47;;;3.17;;
56122;SDS011;42426;46.104;19.656;2023-07-28T08:45:07;4.68;;;3.20;;
56122;SDS011;42426;46.104;19.656;2023-07-28T08:47:33;4.60;;;3.13;;
56122;SDS011;42426;46.104;19.656;2023-07-28T08:50:01;7.18;;;3.47;;
56122;SDS011;42426;46.104;19.656;2023-07-28T08:52:28;3.88;;;3.25;;
56122;SDS011;42426;46.104;19.656;2023-07-28T08:54:54;3.67;;;3.30;;
56122;SDS011;42426;46.104;19.656;2023-07-28T08:57:19;4.15;;;3.55;;
56122;SDS011;42426;46.104;19.656;2023-07-28T08:59:46;4.38;;;2.90;;
56122;SDS011;42426;46.104;19.656;2023-07-28T09:02:15;4.15;;;3.13;;
56122;SDS011;42426;46.104;19.656;2023-07-28T09:04:42;7.13;;;3.50;;
56122;SDS011;42426;46.104;19.656;2023-07-28T09:07:09;5.50;;;3.42;;
56122;SDS011;42426;46.104;19.656;2023-07-28T09:09:35;5.30;;;2.88;;
56122;SDS011;42426;46.104;19.656;2023-07-28T09:12:05;4.38;;;3.17;;
56122;SDS011;42426;46.104;19.656;2023-07-28T09:14:32;3.33;;;3.00;;
56122;SDS011;42426;46.104;19.656;2023-07-28T09:17:06;5.28;;;2.88;;
56122;SDS011;42426;46.104;19.656;2023-07-28T09:19:33;3.28;;;2.97;;
56122;SDS011;42426;46.104;19.656;2023-07-28T09:21:59;4.82;;;3.45;;
56122;SDS011;42426;46.104;19.656;2023-07-28T09:24:32;3.50;;;3.03;;
56122;SDS011;42426;46.104;19.656;2023-07-28T09:26:59;5.07;;;3.40;;
56122;SDS011;42426;46.104;19.656;2023-07-28T09:29:26;6.38;;;3.95;;
56122;SDS011;42426;46.104;19.656;2023-07-28T09:32:02;5.50;;;3.17;;
56122;SDS011;42426;46.104;19.656;2023-07-28T09:34:29;4.05;;;3.20;;
56122;SDS011;42426;46.104;19.656;2023-07-28T09:36:56;4.13;;;3.20;;
56122;SDS011;42426;46.104;19.656;2023-07-28T09:39:23;3.53;;;3.17;;
56122;SDS011;42426;46.104;19.656;2023-07-28T09:41:49;4.63;;;3.55;;
56122;SDS011;42426;46.104;19.656;2023-07-28T09:44:15;4.57;;;3.60;;
56122;SDS011;42426;46.104;19.656;2023-07-28T09:46:51;4.13;;;3.50;;
56122;SDS011;42426;46.104;19.656;2023-07-28T09:49:22;5.38;;;3.13;;
56122;SDS011;42426;46.104;19.656;2023-07-28T09:51:53;5.22;;;3.17;;
56122;SDS011;42426;46.104;19.656;2023-07-28T09:54:25;4.38;;;3.30;;
56122;SDS011;42426;46.104;19.656;2023-07-28T09:56:55;7.40;;;3.63;;
56122;SDS011;42426;46.104;19.656;2023-07-28T09:59:29;4.85;;;3.40;;
56122;SDS011;42426;46.104;19.656;2023-07-28T10:01:59;5.30;;;3.15;;
56122;SDS011;42426;46.104;19.656;2023-07-28T10:04:26;4.57;;;3.30;;
56122;SDS011;42426;46.104;19.656;2023-07-28T10:06:52;4.88;;;3.08;;
56122;SDS011;42426;46.104;19.656;2023-07-28T10:09:25;5.28;;;3.30;;
56122;SDS011;42426;46.104;19.656;2023-07-28T10:11:52;4.32;;;3.38;;
56122;SDS011;42426;46.104;19.656;2023-07-28T10:14:32;7.03;;;3.30;;
56122;SDS011;42426;46.104;19.656;2023-07-28T10:17:02;5.63;;;2.90;;
56122;SDS011;42426;46.104;19.656;2023-07-28T10:19:29;3.63;;;3.28;;
56122;SDS011;42426;46.104;19.656;2023-07-28T10:22:02;3.03;;;2.73;;
56122;SDS011;42426;46.104;19.656;2023-07-28T10:27:30;3.45;;;3.05;;
56122;SDS011;42426;46.104;19.656;2023-07-28T10:30:17;5.00;;;3.08;;
56122;SDS011;42426;46.104;19.656;2023-07-28T10:32:44;3.85;;;3.08;;
56122;SDS011;42426;46.104;19.656;2023-07-28T10:37:45;6.38;;;3.40;;
56122;SDS011;42426;46.104;19.656;2023-07-28T10:43:00;4.18;;;3.40;;
56122;SDS011;42426;46.104;19.656;2023-07-28T10:45:28;3.08;;;2.83;;
56122;SDS011;42426;46.104;19.656;2023-07-28T10:47:55;4.78;;;3.30;;
56122;SDS011;42426;46.104;19.656;2023-07-28T10:50:25;4.78;;;3.10;;
56122;SDS011;42426;46.104;19.656;2023-07-28T10:52:55;3.65;;;3.35;;
56122;SDS011;42426;46.104;19.656;2023-07-28T10:55:23;8.43;;;3.80;;
56122;SDS011;42426;46.104;19.656;2023-07-28T10:57:50;3.80;;;3.40;;
56122;SDS011;42426;46.104;19.656;2023-07-28T11:00:18;4.63;;;3.35;;
56122;SDS011;42426;46.104;19.656;2023-07-28T11:02:45;4.68;;;3.67;;
56122;SDS011;42426;46.104;19.656;2023-07-28T11:05:25;4.97;;;3.60;;
56122;SDS011;42426;46.104;19.656;2023-07-28T11:07:56;4.15;;;3.50;;
56122;SDS011;42426;46.104;19.656;2023-07-28T11:10:24;4.97;;;3.40;;
56122;SDS011;42426;46.104;19.656;2023-07-28T11:12:51;4.55;;;3.65;;
56122;SDS011;42426;46.104;19.656;2023-07-28T11:15:18;4.88;;;3.20;;
56122;SDS011;42426;46.104;19.656;2023-07-28T11:17:46;4.35;;;3.78;;
56122;SDS011;42426;46.104;19.656;2023-07-28T11:22:58;4.45;;;3.17;;
56122;SDS011;42426;46.104;19.656;2023-07-28T11:25:26;5.95;;;3.40;;
56122;SDS011;42426;46.104;19.656;2023-07-28T11:27:53;4.80;;;3.67;;
56122;SDS011;42426;46.104;19.656;2023-07-28T11:30:21;4.85;;;3.58;;
56122;SDS011;42426;46.104;19.656;2023-07-28T11:32:49;5.30;;;3.72;;
56122;SDS011;42426;46.104;19.656;2023-07-28T11:35:17;5.63;;;3.13;;
56122;SDS011;42426;46.104;19.656;2023-07-28T11:37:44;4.43;;;3.45;;
56122;SDS011;42426;46.104;19.656;2023-07-28T11:40:11;3.50;;;3.20;;
56122;SDS011;42426;46.104;19.656;2023-07-28T11:42:38;5.20;;;3.50;;
56122;SDS011;42426;46.104;19.656;2023-07-28T11:45:04;4.20;;;3.35;;
56122;SDS011;42426;46.104;19.656;2023-07-28T11:47:31;3.40;;;2.83;;
56122;SDS011;42426;46.104;19.656;2023-07-28T11:49:57;3.97;;;3.33;;
56122;SDS011;42426;46.104;19.656;2023-07-28T11:55:00;8.60;;;3.58;;
56122;SDS011;42426;46.104;19.656;2023-07-28T11:57:28;4.55;;;3.55;;
56122;SDS011;42426;46.104;19.656;2023-07-28T11:59:57;5.80;;;3.85;;
56122;SDS011;42426;46.104;19.656;2023-07-28T12:02:27;4.88;;;3.75;;
56122;SDS011;42426;46.104;19.656;2023-07-28T12:04:54;5.80;;;3.65;;
56122;SDS011;42426;46.104;19.656;2023-07-28T12:07:28;6.05;;;4.20;;
56122;SDS011;42426;46.104;19.656;2023-07-28T12:10:02;5.13;;;3.28;;
56122;SDS011;42426;46.104;19.656;2023-07-28T12:12:29;3.72;;;3.35;;
56122;SDS011;42426;46.104;19.656;2023-07-28T12:14:55;5.80;;;3.42;;
56122;SDS011;42426;46.104;19.656;2023-07-28T12:17:24;3.47;;;3.17;;
56122;SDS011;42426;46.104;19.656;2023-07-28T12:19:57;5.15;;;3.00;;
56122;SDS011;42426;46.104;19.656;2023-07-28T12:22:23;4.55;;;3.38;;
56122;SDS011;42426;46.104;19.656;2023-07-28T12:24:49;7.00;;;3.58;;
56122;SDS011;42426;46.104;19.656;2023-07-28T12:27:15;5.05;;;3.40;;
56122;SDS011;42426;46.104;19.656;2023-07-28T12:29:41;6.55;;;3.72;;
56122;SDS011;42426;46.104;19.656;2023-07-28T12:32:07;6.32;;;3.22;;
56122;SDS011;42426;46.104;19.656;2023-07-28T12:34:33;4.20;;;3.33;;
56122;SDS011;42426;46.104;19.656;2023-07-28T12:36:59;6.82;;;3.70;;
56122;SDS011;42426;46.104;19.656;2023-07-28T12:39:24;6.90;;;3.50;;
56122;SDS011;42426;46.104;19.656;2023-07-28T12:41:50;7.22;;;3.33;;
56122;SDS011;42426;46.104;19.656;2023-07-28T12:44:19;4.00;;;3.58;;
56122;SDS011;42426;46.104;19.656;2023-07-28T12:46:45;5.57;;;3.55;;
56122;SDS011;42426;46.104;19.656;2023-07-28T12:49:11;4.38;;;3.80;;
56122;SDS011;42426;46.104;19.656;2023-07-28T12:51:37;5.10;;;3.92;;
56122;SDS011;42426;46.104;19.656;2023-07-28T12:54:02;5.93;;;4.25;;
56122;SDS011;42426;46.104;19.656;2023-07-28T12:56:30;7.05;;;5.03;;
56122;SDS011;42426;46.104;19.656;2023-07-28T12:58:55;9.88;;;4.97;;
56122;SDS011;42426;46.104;19.656;2023-07-28T13:01:21;8.10;;;5.07;;
56122;SDS011;42426;46.104;19.656;2023-07-28T13:03:47;6.70;;;4.90;;
56122;SDS011;42426;46.104;19.656;2023-07-28T13:06:12;5.75;;;4.70;;
56122;SDS011;42426;46.104;19.656;2023-07-28T13:08:39;6.03;;;4.93;;
56122;SDS011;42426;46.104;19.656;2023-07-28T13:11:06;7.63;;;5.35;;
56122;SDS011;42426;46.104;19.656;2023-07-28T13:13:32;9.30;;;4.90;;
56122;SDS011;42426;46.104;19.656;2023-07-28T13:15:58;10.50;;;5.85;;
56122;SDS011;42426;46.104;19.656;2023-07-28T13:18:24;10.30;;;5.60;;
56122;SDS011;42426;46.104;19.656;2023-07-28T13:20:50;5.57;;;4.43;;
56122;SDS011;42426;46.104;19.656;2023-07-28T13:23:16;8.45;;;5.72;;
56122;SDS011;42426;46.104;19.656;2023-07-28T13:25:42;6.15;;;5.10;;
56122;SDS011;42426;46.104;19.656;2023-07-28T13:28:08;7.03;;;5.00;;
56122;SDS011;42426;46.104;19.656;2023-07-28T13:30:33;4.68;;;4.28;;
56122;SDS011;42426;46.104;19.656;2023-07-28T13:32:59;5.05;;;4.53;;
56122;SDS011;42426;46.104;19.656;2023-07-28T13:35:26;6.00;;;4.10;;
56122;SDS011;42426;46.104;19.656;2023-07-28T13:37:51;7.82;;;4.03;;
56122;SDS011;42426;46.104;19.656;2023-07-28T13:40:17;4.05;;;3.58;;
56122;SDS011;42426;46.104;19.656;2023-07-28T13:42:43;5.10;;;4.60;;
56122;SDS011;42426;46.104;19.656;2023-07-28T13:45:09;4.30;;;3.70;;
56122;SDS011;42426;46.104;19.656;2023-07-28T13:47:34;3.97;;;3.20;;
56122;SDS011;42426;46.104;19.656;2023-07-28T13:50:00;5.28;;;3.63;;
56122;SDS011;42426;46.104;19.656;2023-07-28T13:52:26;4.57;;;3.88;;
56122;SDS011;42426;46.104;19.656;2023-07-28T13:54:52;4.25;;;3.85;;
56122;SDS011;42426;46.104;19.656;2023-07-28T13:57:17;4.78;;;3.45;;
56122;SDS011;42426;46.104;19.656;2023-07-28T13:59:43;4.25;;;3.65;;
56122;SDS011;42426;46.104;19.656;2023-07-28T14:02:10;4.03;;;3.58;;
56122;SDS011;42426;46.104;19.656;2023-07-28T14:04:36;4.38;;;3.63;;
56122;SDS011;42426;46.104;19.656;2023-07-28T14:07:02;4.28;;;3.47;;
56122;SDS011;42426;46.104;19.656;2023-07-28T14:09:28;6.53;;;3.65;;
56122;SDS011;42426;46.104;19.656;2023-07-28T14:11:54;6.15;;;3.53;;
56122;SDS011;42426;46.104;19.656;2023-07-28T14:14:20;4.75;;;3.47;;
56122;SDS011;42426;46.104;19.656;2023-07-28T14:16:46;3.88;;;3.47;;
56122;SDS011;42426;46.104;19.656;2023-07-28T14:19:11;4.97;;;3.70;;
56122;SDS011;42426;46.104;19.656;2023-07-28T14:21:37;6.10;;;3.75;;
56122;SDS011;42426;46.104;19.656;2023-07-28T14:24:04;4.97;;;3.58;;
56122;SDS011;42426;46.104;19.656;2023-07-28T14:26:30;4.43;;;4.03;;
56122;SDS011;42426;46.104;19.656;2023-07-28T14:28:56;4.45;;;3.45;;
56122;SDS011;42426;46.104;19.656;2023-07-28T14:31:22;4.30;;;3.83;;
56122;SDS011;42426;46.104;19.656;2023-07-28T14:33:48;3.85;;;3.45;;
56122;SDS011;42426;46.104;19.656;2023-07-28T14:36:13;3.78;;;3.47;;
56122;SDS011;42426;46.104;19.656;2023-07-28T14:38:39;3.60;;;3.28;;
56122;SDS011;42426;46.104;19.656;2023-07-28T14:41:05;4.82;;;3.80;;
56122;SDS011;42426;46.104;19.656;2023-07-28T14:43:31;4.50;;;3.65;;
56122;SDS011;42426;46.104;19.656;2023-07-28T14:45:57;6.20;;;3.75;;
56122;SDS011;42426;46.104;19.656;2023-07-28T14:48:23;4.28;;;3.88;;